Latest Weather Observations for Mount Buller

IDV60801

Issued at 11:02 pm EDT Sunday 1 March 2015 (issued every 30 minutes, with the page automatically refreshed every 10 minutes)

About weather observations | Map of weather stations | Latest weather observations for VIC | Other Formats
Station Details ID: 083024 Name: MOUNT BULLER Lat: -37.15 Lon: 146.44 Height: 1707.0 m
Data from the previous 72 hours. | See also: Recent months at Mount Buller
Date/Time
EDT
Temp
°C
App
Temp
°C
Dew
Point
Rel
Hum
%
Delta-T
°C
Wind Press
QNH
hPa
Press
MSL
hPa
Rain
since 9 am
mm
Dir
 
Spd
km/h
Gust
km/h
Spd
kts
Gust
kts
01/11:00pm 5.9 -3.5 -6.6 40 4.6 SSE 35 46 19 25 - - 0.0
01/10:30pm 5.8 -2.9 -5.2 45 4.2 SSE 32 41 17 22 - - 0.0
01/10:00pm 4.8 -3.6 -1.2 65 2.5 SSE 33 39 18 21 - - 0.0
01/09:30pm 4.8 -3.2 1.6 80 1.4 SSE 33 41 18 22 - - 0.0
01/09:00pm 4.9 -3.0 2.3 83 1.2 S 33 39 18 21 - - 0.0
01/08:30pm 5.2 -2.1 2.6 83 1.2 S 30 35 16 19 - - 0.0
01/08:00pm 5.6 -3.1 1.9 77 1.7 S 37 46 20 25 - - 0.0
01/07:30pm 6.6 -1.2 2.7 76 1.8 S 33 43 18 23 - - 0.0
01/07:00pm 7.5 -0.1 2.6 71 2.3 S 32 39 17 21 - - 0.0
01/06:30pm 8.1 1.2 2.8 69 2.5 S 28 37 15 20 - - 0.0
01/06:00pm 9.3 3.3 3.3 66 2.9 S 24 33 13 18 - - 0.0
01/05:30pm 9.4 2.7 3.4 66 2.9 S 28 37 15 20 - - 0.0
01/05:00pm 8.9 1.4 3.5 69 2.6 S 32 43 17 23 - - 0.0
01/04:30pm 10.4 3.9 4.5 67 2.9 S 28 39 15 21 - - 0.0
01/04:00pm 9.9 3.2 3.4 64 3.1 S 28 39 15 21 - - 0.0
01/03:30pm 9.6 2.8 5.0 73 2.3 S 30 41 16 22 - - 0.0
01/03:00pm 8.7 2.0 3.9 72 2.3 S 28 41 15 22 - - 0.0
01/02:30pm 9.7 3.3 5.3 74 2.2 S 28 41 15 22 - - 0.0
01/02:00pm 8.5 1.3 5.1 79 1.7 S 32 43 17 23 - - 0.0
01/01:30pm 8.3 2.9 7.9 97 0.2 S 26 35 14 19 - - 0.0
01/01:00pm 8.3 3.3 8.2 99 0.1 S 24 32 13 17 - - 0.0
01/12:30pm 6.7 1.7 6.6 99 0.1 S 22 30 12 16 - - 0.0
01/12:00pm 7.1 2.8 7.0 99 0.1 S 19 26 10 14 - - 0.0
01/11:30am 7.7 4.3 7.6 99 0.1 S 15 22 8 12 - - 0.0
01/11:00am 7.9 4.9 7.8 99 0.1 S 13 19 7 10 - - 0.0
01/10:30am 8.1 5.6 8.0 99 0.1 SSW 11 17 6 9 - - 0.0
01/10:00am 8.2 6.1 8.1 99 0.1 SSW 9 13 5 7 - - 0.0
01/09:30am 8.3 6.2 8.2 99 0.1 SSW 9 17 5 9 - - 0.0
01/09:00am 8.6 6.9 8.5 99 0.1 SW 7 20 4 11 - - 7.6
01/08:30am 9.0 7.1 8.9 99 0.1 SSW 9 17 5 9 - - 7.6
01/08:00am 8.8 6.4 8.7 99 0.1 WSW 11 20 6 11 - - 7.6
01/07:30am 9.0 6.3 8.9 99 0.1 W 13 19 7 10 - - 7.6
01/07:00am 10.2 7.8 10.0 99 0.1 W 13 22 7 12 - - 7.6
01/06:30am 10.6 8.7 10.4 99 0.1 WNW 11 19 6 10 - - 7.6
01/06:00am 10.4 7.7 10.2 99 0.1 WNW 15 33 8 18 - - 7.6
01/05:30am 10.7 8.0 10.5 99 0.1 WNW 15 28 8 15 - - 7.6
01/05:00am 11.0 9.9 10.7 98 0.2 NW 7 17 4 9 - - 7.6
01/04:30am 11.1 8.1 10.6 97 0.3 NNW 17 37 9 20 - - 6.0
01/04:04am 11.6 6.4 10.3 92 0.7 NW 28 52 15 28 - - 5.8
01/04:00am 11.8 7.7 10.2 90 0.9 NW 22 52 12 28 - - 5.8
01/03:39am 12.0 6.8 10.2 89 1.0 NW 28 48 15 26 - - 5.8
01/03:30am 11.8 7.8 10.4 91 0.8 NNW 22 46 12 25 - - 5.8
01/03:00am 11.5 7.2 10.6 94 0.5 NNW 24 43 13 23 - - 5.8
01/02:38am 11.3 6.3 10.8 97 0.3 NNW 28 54 15 29 - - 5.8
01/02:30am 11.1 7.6 10.8 98 0.2 NNW 20 44 11 24 - - 5.6
01/02:00am 10.8 5.2 10.2 96 0.3 NW 30 56 16 30 - - 5.2
01/01:43am 11.1 7.3 9.9 92 0.7 W 20 52 11 28 - - 3.4
01/01:30am 12.2 5.8 8.7 79 1.9 NW 32 44 17 24 - - 2.6
01/01:06am 11.6 5.1 8.3 80 1.8 WNW 32 48 17 26 - - 2.2
01/01:00am 10.4 5.6 8.7 89 0.9 W 24 33 13 18 - - 2.0
01/12:30am 11.0 4.8 7.9 81 1.7 W 30 39 16 21 - - 1.2
01/12:00am 11.3 5.9 6.4 72 2.5 WNW 24 35 13 19 - - 1.2
 
Date/Time
EDT
Temp
°C
App
Temp
°C
Dew
Point
Rel
Hum
%
Delta-T
°C
Wind Press
QNH
hPa
Press
MSL
hPa
Rain
since 9 am
mm
Dir
 
Spd
km/h
Gust
km/h
Spd
kts
Gust
kts
28/11:30pm 11.2 4.9 7.3 77 2.1 WNW 30 59 16 32 - - 1.2
28/11:05pm 13.7 5.9 6.8 63 3.7 NNW 37 67 20 36 - - 0.6
28/11:03pm 14.1 5.2 6.9 62 3.8 NNW 43 72 23 39 - - 0.2
28/11:00pm 14.6 5.0 6.4 58 4.3 N 46 72 25 39 - - 0.0
28/10:30pm 15.7 5.6 3.8 45 6.0 N 46 65 25 35 - - 0.0
28/10:00pm 14.8 5.9 3.0 45 5.8 N 39 59 21 32 - - 0.0
28/09:53pm 15.3 6.0 2.8 43 6.2 N 41 59 22 32 - - 0.0
28/09:30pm 15.0 6.1 2.9 44 6.0 N 39 52 21 28 - - 0.0
28/09:00pm 14.4 6.3 3.5 48 5.4 N 35 46 19 25 - - 0.0
28/08:30pm 14.7 7.0 3.2 46 5.7 N 33 46 18 25 - - 0.0
28/08:00pm 14.4 6.3 3.2 47 5.6 N 35 46 19 25 - - 0.0
28/07:30pm 14.4 8.2 4.4 51 5.1 N 26 33 14 18 - - 0.0
28/07:00pm 14.5 8.0 4.5 51 5.1 NNE 28 32 15 17 - - 0.0
28/06:30pm 15.1 9.9 5.6 53 5.0 N 22 30 12 16 - - 0.0
28/06:00pm 15.5 10.9 6.5 55 4.8 NNE 20 26 11 14 - - 0.0
28/05:30pm 14.4 8.8 5.2 54 4.8 N 24 32 13 17 - - 0.0
28/05:00pm 14.6 10.4 5.9 56 4.6 NNE 17 28 9 15 - - 0.0
28/04:30pm 14.2 10.1 6.1 58 4.3 NNE 17 22 9 12 - - 0.0
28/04:00pm 13.8 9.3 5.9 59 4.1 NNE 19 22 10 12 - - 0.0
28/03:30pm 14.5 10.6 7.1 61 4.0 N 17 22 9 12 - - 0.0
28/03:00pm 14.6 10.3 7.2 61 4.0 N 19 24 10 13 - - 0.0
28/02:30pm 15.0 10.3 7.8 62 3.9 NNW 22 28 12 15 - - 0.0
28/02:00pm 12.8 8.3 7.0 68 3.1 NNW 20 30 11 16 - - 0.0
28/01:30pm 12.9 8.9 8.2 73 2.6 NNW 19 35 10 19 - - 0.0
28/01:00pm 15.2 11.1 8.0 62 4.0 NNW 19 37 10 20 - - 0.0
28/12:30pm 15.2 9.7 6.0 54 4.9 NNW 24 35 13 19 - - 0.0
28/12:00pm 14.9 10.3 5.4 53 4.9 NNW 19 28 10 15 - - 0.0
28/11:30am 16.3 11.6 6.2 51 5.4 N 20 30 11 16 - - 0.0
28/11:00am 15.4 10.7 5.3 51 5.3 N 19 28 10 15 - - 0.0
28/10:30am 15.3 10.3 3.5 45 5.9 N 19 22 10 12 - - 0.0
28/10:00am 14.5 9.1 2.4 44 5.9 N 20 24 11 13 - - 0.0
28/09:30am 14.6 9.2 2.2 43 6.0 N 20 28 11 15 - - 0.0
28/09:00am 14.2 8.8 -1.0 35 6.9 NNW 17 20 9 11 - - 0.0
28/08:30am 13.7 8.9 0.4 40 6.2 NNW 15 17 8 9 - - 0.0
28/08:00am 13.4 9.4 2.6 48 5.3 NNW 13 17 7 9 - - 0.0
28/07:30am 13.0 8.8 3.7 53 4.6 NW 15 19 8 10 - - 0.0
28/07:00am 13.4 11.1 4.8 56 4.4 NNW 6 9 3 5 - - 0.0
28/06:30am 14.0 12.2 7.3 64 3.6 NNW 6 9 3 5 - - 0.0
28/06:00am 14.1 11.0 8.7 70 3.0 SSW 15 17 8 9 - - 0.0
28/05:30am 13.5 11.4 9.6 77 2.2 WSW 11 13 6 7 - - 0.0
28/05:00am 12.6 7.7 -0.3 41 5.9 W 15 19 8 10 - - 0.0
28/04:30am 13.6 8.8 -2.3 33 7.0 W 13 15 7 8 - - 0.0
28/04:00am 13.3 7.2 -7.4 23 8.1 W 17 20 9 11 - - 0.0
28/03:30am 13.4 8.4 1.4 44 5.7 WNW 17 20 9 11 - - 0.0
28/03:00am 12.5 8.0 4.0 56 4.2 W 17 19 9 10 - - 0.0
28/02:30am 12.9 8.1 2.5 49 5.0 W 17 22 9 12 - - 0.0
28/02:00am 13.1 8.0 0.5 42 5.9 WNW 17 22 9 12 - - 0.0
28/01:30am 13.6 8.5 -2.3 33 7.0 WNW 15 19 8 10 - - 0.0
28/01:00am 13.7 8.4 -3.5 30 7.4 WNW 15 20 8 11 - - 0.0
28/12:30am 13.1 8.8 -1.6 36 6.5 NW 11 13 6 7 - - 0.0
28/12:00am 13.1 8.9 -3.6 31 7.1 NW 9 13 5 7 - - 0.0
 
Date/Time
EDT
Temp
°C
App
Temp
°C
Dew
Point
Rel
Hum
%
Delta-T
°C
Wind Press
QNH
hPa
Press
MSL
hPa
Rain
since 9 am
mm
Dir
 
Spd
km/h
Gust
km/h
Spd
kts
Gust
kts
27/11:30pm 13.3 9.6 -3.0 32 7.0 NNW 7 9 4 5 - - 0.0
27/11:00pm 13.2 9.7 -1.5 36 6.5 NNW 7 11 4 6 - - 0.0
27/10:30pm 13.6 10.1 -1.6 35 6.8 NNW 7 13 4 7 - - 0.0
27/10:00pm 13.7 10.2 -1.5 35 6.8 NNW 7 9 4 5 - - 0.0
27/09:30pm 13.0 9.9 0.4 42 5.8 N 6 7 3 4 - - 0.0
27/09:00pm 13.3 10.6 0.0 40 6.1 WNW 4 7 2 4 - - 0.0
27/08:30pm 13.6 10.5 -0.1 39 6.3 W 6 11 3 6 - - 0.0
27/08:00pm 13.7 11.2 1.7 44 5.7 WSW 4 7 2 4 - - 0.0
27/07:30pm 14.2 12.8 3.4 48 5.4 CALM 0 2 0 1 - - 0.0
27/07:00pm 14.6 12.6 2.5 44 5.9 NW 2 4 1 2 - - 0.0
27/06:30pm 14.7 11.4 2.6 44 5.9 WSW 9 13 5 7 - - 0.0
27/06:00pm 16.4 13.4 2.1 38 7.0 WSW 7 9 4 5 - - 0.0
27/05:30pm 16.9 14.4 3.6 41 6.8 NNW 6 13 3 7 - - 0.0
27/05:00pm 16.9 14.4 4.6 44 6.4 WNW 7 15 4 8 - - 0.0
27/04:30pm 16.2 12.8 1.9 38 7.0 NNW 9 19 5 10 - - 0.0
27/04:00pm 16.6 12.6 2.6 39 7.0 NNW 13 24 7 13 - - 0.0
27/03:30pm 16.4 12.0 4.8 46 6.0 NW 17 26 9 14 - - 0.0
27/03:00pm 16.2 11.8 4.9 47 5.9 NNW 17 26 9 14 - - 0.0
27/02:30pm 15.9 12.5 5.8 51 5.3 N 13 22 7 12 - - 0.0
27/02:00pm 17.1 15.0 9.8 62 4.2 NNW 11 20 6 11 - - 0.0
27/01:30pm 15.3 12.1 8.5 64 3.8 NNW 15 26 8 14 - - 0.0
27/01:00pm 15.0 11.1 7.1 59 4.3 N 17 22 9 12 - - 0.0
27/12:30pm 14.8 11.0 7.4 61 4.0 NNW 17 30 9 16 - - 0.0
27/12:00pm 14.3 10.1 5.9 57 4.4 NNW 17 24 9 13 - - 0.0
27/11:30am 13.3 8.4 3.9 53 4.7 NNW 19 28 10 15 - - 0.0
27/11:00am 13.8 8.5 2.1 45 5.7 N 19 24 10 13 - - 0.0
27/10:30am 13.0 7.9 1.0 44 5.6 N 17 22 9 12 - - 0.0
27/10:00am 12.3 7.9 0.4 44 5.5 N 13 19 7 10 - - 0.0
27/09:30am 11.2 7.5 2.2 54 4.3 NNW 11 15 6 8 - - 0.0
27/09:00am 10.4 5.2 2.5 58 3.7 NW 19 24 10 13 - - 0.0
27/08:30am 10.4 5.8 -0.7 46 4.9 NW 13 20 7 11 - - 0.0
27/08:00am 10.9 3.9 -14.7 15 8.3 NW 19 28 10 15 - - 0.0
27/07:30am 9.6 2.1 -8.0 28 6.5 WNW 24 33 13 18 - - 0.0
27/07:00am 9.5 2.5 -7.2 30 6.3 WNW 22 33 12 18 - - 0.0
27/06:30am 9.4 2.2 -15.1 16 7.7 WNW 20 32 11 17 - - 0.0
27/06:00am 8.3 2.6 -7.4 32 5.8 NW 15 20 8 11 - - 0.0
27/05:30am 7.1 3.1 0.3 62 3.0 NNW 11 15 6 8 - - 0.0
27/05:00am 7.0 1.6 1.1 66 2.6 NW 19 22 10 12 - - 0.0
27/04:30am 8.2 3.4 -2.7 46 4.5 NNW 13 20 7 11 - - 0.0
27/04:00am 7.5 2.7 2.6 71 2.3 N 17 19 9 10 - - 0.0
27/03:30am 7.5 3.9 5.1 85 1.2 NNW 13 19 7 10 - - 0.0
27/03:00am 7.5 4.4 3.4 75 1.9 NNW 9 13 5 7 - - 0.0
27/02:30am 8.0 5.6 5.1 82 1.4 NW 7 9 4 5 - - 0.0
27/02:00am 8.3 5.7 4.1 75 2.0 W 7 19 4 10 - - 0.0
27/01:30am 8.2 5.4 5.3 82 1.4 WSW 9 11 5 6 - - 0.0
27/01:00am 8.9 8.1 8.3 96 0.3 SSW 2 4 1 2 - - 0.0
27/12:30am 8.4 5.1 6.2 86 1.1 WSW 13 19 7 10 - - 0.0
27/12:00am 9.6 8.1 8.5 93 0.6 WSW 6 9 3 5 - - 0.0
 
Date/Time
EDT
Temp
°C
App
Temp
°C
Dew
Point
Rel
Hum
%
Delta-T
°C
Wind Press
QNH
hPa
Press
MSL
hPa
Rain
since 9 am
mm
Dir
 
Spd
km/h
Gust
km/h
Spd
kts
Gust
kts
26/11:30pm 9.6 8.1 9.3 98 0.2 SSW 7 11 4 6 - - 0.0

Other Formats:

Comma delimited format used in spreadsheet applications
http://www.bom.gov.au/fwo/IDV60801/IDV60801.94894.axf

JavaScript Object Notation format (JSON) in row-major order
http://www.bom.gov.au/fwo/IDV60801/IDV60801.94894.json